TAF and METAR

Decoding for American and Canadian METARs and TAFs is not fully implemented.
No METAR available for Taloyoak Airport

TAF for Taloyoak Airport

TAF AMD CYYH 021808Z 0218/0306 18010KT P6SM SCT008 OVC015 TEMPO 0218/0221 21/2SM BR OVC008 FM022100 16007KT P6SM OVC015 TEMPO 0221/0306 3SM -FZDZ BR OVC008 BECMG 0222/0224 12007KT RMK NXT FCST BY 030000Z
Report created 2. jun 20:08

between 2. jun 20:00 - 3. jun 08:00

wind 10 knots from S (180°)